Time;durP1;ratioP1;P1;durP2;ratioP2;P2;SDS_P1;SDS_P2;PMS_P1;PMS_P2;Temp;Humidity;BMP_temperature;BMP_pressure;BME280_temperature;BME280_humidity;BME280_pressure;Samples;Min_cycle;Max_cycle;Signal;HPM_P1;HPM_P2
2022/08/20 00:00:28;;;;;;;5.82;3.08;;;16.50;99.90;;;;;;5027717;28;20065;-65
2022/08/20 00:02:57;;;;;;;6.87;2.10;;;16.50;99.90;;;;;;5028366;28;20045;-66
2022/08/20 00:05:32;;;;;;;4.80;1.92;;;16.40;99.90;;;;;;5033421;28;20305;-65
2022/08/20 00:07:59;;;;;;;8.00;2.97;;;16.40;99.90;;;;;;5030958;28;20052;-66
2022/08/20 00:10:27;;;;;;;5.10;1.85;;;16.30;99.90;;;;;;5023411;28;20042;-65
2022/08/20 00:12:54;;;;;;;9.65;2.60;;;16.30;99.90;;;;;;5014525;28;20050;-66
2022/08/20 00:15:23;;;;;;;7.32;2.20;;;16.30;99.90;;;;;;5014600;28;20054;-66
2022/08/20 00:17:51;;;;;;;6.47;2.10;;;16.20;99.90;;;;;;5017592;28;20050;-68
2022/08/20 00:20:19;;;;;;;6.18;2.10;;;16.20;99.90;;;;;;5024916;28;20452;-75
2022/08/20 00:22:46;;;;;;;23.63;14.00;;;16.20;99.90;;;;;;5014374;28;20482;-66
2022/08/20 00:25:13;;;;;;;17.20;11.43;;;16.20;99.90;;;;;;5046850;28;20177;-67
2022/08/20 00:27:40;;;;;;;9.80;3.47;;;16.10;99.90;;;;;;5017148;28;20484;-67
2022/08/20 00:30:09;;;;;;;6.90;2.33;;;16.10;99.90;;;;;;5032191;28;20053;-66
2022/08/20 00:32:49;;;;;;;6.47;2.10;;;16.00;99.90;;;;;;5035539;28;20049;-66
2022/08/20 00:35:17;;;;;;;5.63;2.25;;;16.00;99.90;;;;;;5014449;28;20053;-67
2022/08/20 00:37:44;;;;;;;6.00;2.40;;;16.00;99.90;;;;;;5029545;28;20061;-67
2022/08/20 00:40:12;;;;;;;5.93;1.80;;;15.90;99.90;;;;;;5000385;28;20310;-66
2022/08/20 00:42:56;;;;;;;6.47;1.98;;;15.90;99.90;;;;;;5014189;28;20050;-66
2022/08/20 00:45:27;;;;;;;4.82;1.88;;;15.90;99.90;;;;;;5014485;28;20124;-66
2022/08/20 00:47:54;;;;;;;4.47;1.60;;;15.80;99.90;;;;;;5014576;28;20053;-66
2022/08/20 00:50:28;;;;;;;8.45;2.80;;;15.80;99.90;;;;;;4997815;28;20054;-67
2022/08/20 00:52:55;;;;;;;6.20;2.13;;;15.80;99.90;;;;;;5013911;28;20054;-66
2022/08/20 00:55:23;;;;;;;7.05;2.03;;;15.80;99.90;;;;;;5013977;28;20406;-67
2022/08/20 00:57:57;;;;;;;8.63;3.08;;;15.70;99.90;;;;;;5014289;28;20124;-66
2022/08/20 01:00:36;;;;;;;7.35;2.25;;;15.70;99.90;;;;;;5015072;28;20056;-66
2022/08/20 01:03:08;;;;;;;7.00;2.83;;;15.70;99.90;;;;;;5047167;28;20049;-67
2022/08/20 01:05:36;;;;;;;5.60;2.55;;;15.60;99.90;;;;;;5033686;28;20462;-66
2022/08/20 01:08:03;;;;;;;11.40;2.92;;;15.60;99.90;;;;;;5033568;28;20120;-66
2022/08/20 01:10:34;;;;;;;5.22;2.22;;;15.60;99.90;;;;;;5033259;28;20057;-66
2022/08/20 01:13:07;;;;;;;8.20;2.45;;;15.60;99.90;;;;;;5025384;28;20057;-67
2022/08/20 01:15:35;;;;;;;5.85;1.92;;;15.50;99.90;;;;;;5021947;28;20406;-66
2022/08/20 01:18:13;;;;;;;10.68;2.30;;;15.50;99.90;;;;;;5020716;28;20045;-66
2022/08/20 01:20:45;;;;;;;6.28;2.30;;;15.50;99.90;;;;;;5021605;28;20054;-67
2022/08/20 01:23:49;;;;;;;8.75;2.20;;;15.50;99.90;;;;;;5019362;28;20053;-65
2022/08/20 01:26:24;;;;;;;7.53;3.25;;;15.40;99.90;;;;;;5013953;28;20057;-66
2022/08/20 01:29:04;;;;;;;6.53;2.17;;;15.40;99.90;;;;;;5014452;28;20068;-66
2022/08/20 01:31:33;;;;;;;10.23;1.95;;;15.30;99.90;;;;;;5014595;28;20056;-66
2022/08/20 01:34:01;;;;;;;6.00;2.33;;;15.30;99.90;;;;;;5013373;28;20142;-66
2022/08/20 01:36:35;;;;;;;9.00;2.80;;;15.20;99.90;;;;;;4996885;28;20054;-66
2022/08/20 01:39:03;;;;;;;4.57;1.70;;;15.20;99.90;;;;;;5013645;28;20500;-66
2022/08/20 01:41:52;;;;;;;7.38;1.98;;;15.20;99.90;;;;;;5024658;28;20053;-65
2022/08/20 01:44:19;;;;;;;3.90;1.70;;;15.20;99.90;;;;;;5025357;28;20485;-66
2022/08/20 01:46:47;;;;;;;4.38;2.15;;;15.10;99.90;;;;;;5027004;28;20523;-66
2022/08/20 01:49:33;;;;;;;5.57;2.58;;;15.10;99.90;;;;;;5028499;28;20064;-65
2022/08/20 01:52:04;;;;;;;6.07;2.00;;;15.10;99.90;;;;;;5000859;28;20042;-68
2022/08/20 01:54:31;;;;;;;10.55;3.13;;;15.10;99.90;;;;;;5021780;28;20050;-68
2022/08/20 01:57:05;;;;;;;4.82;2.10;;;15.00;99.90;;;;;;5030717;28;20428;-68
2022/08/20 01:59:32;;;;;;;8.50;2.60;;;15.10;99.90;;;;;;5009966;28;20050;-68
2022/08/20 02:01:59;;;;;;;6.20;2.17;;;15.00;99.90;;;;;;5030750;28;20048;-67
2022/08/20 02:04:26;;;;;;;9.20;2.63;;;15.00;99.90;;;;;;5026019;28;20092;-67
2022/08/20 02:06:59;;;;;;;9.73;2.75;;;15.00;99.90;;;;;;5030504;28;20056;-68
2022/08/20 02:09:28;;;;;;;8.50;2.15;;;15.00;99.90;;;;;;5031342;28;20046;-67
2022/08/20 02:11:56;;;;;;;6.37;2.70;;;14.90;99.90;;;;;;5025736;28;20054;-68
2022/08/20 02:14:23;;;;;;;4.53;1.83;;;14.90;99.90;;;;;;5028507;28;20306;-67
2022/08/20 02:16:50;;;;;;;5.32;1.90;;;14.80;99.90;;;;;;5023863;28;20050;-67
2022/08/20 02:19:33;;;;;;;6.50;2.38;;;14.80;99.90;;;;;;5028507;28;20056;-68
2022/08/20 02:22:02;;;;;;;6.35;2.00;;;14.80;99.90;;;;;;5027472;28;20052;-67
2022/08/20 02:24:29;;;;;;;4.13;1.83;;;14.70;99.90;;;;;;4998264;28;20048;-68
2022/08/20 02:26:56;;;;;;;8.10;2.28;;;14.60;99.90;;;;;;5029381;28;20497;-68
2022/08/20 02:29:23;;;;;;;6.05;1.52;;;14.60;99.90;;;;;;5028569;28;20046;-67
2022/08/20 02:31:50;;;;;;;8.80;2.20;;;14.60;99.90;;;;;;5011991;28;20050;-68
2022/08/20 02:34:36;;;;;;;6.93;2.33;;;14.60;99.90;;;;;;5012427;28;20515;-67
2022/08/20 02:37:04;;;;;;;5.72;2.45;;;14.50;99.90;;;;;;5028325;28;20053;-67
2022/08/20 02:39:31;;;;;;;6.00;2.30;;;14.50;99.90;;;;;;5027209;28;20254;-69
2022/08/20 02:41:58;;;;;;;9.52;2.15;;;14.50;99.90;;;;;;5028609;28;20082;-67
2022/08/20 02:44:25;;;;;;;8.88;2.65;;;14.40;99.90;;;;;;5017902;28;20148;-68
2022/08/20 02:46:52;;;;;;;5.03;1.83;;;14.40;99.90;;;;;;5027533;28;20057;-68
2022/08/20 02:49:19;;;;;;;7.18;3.08;;;14.40;99.90;;;;;;5029891;28;20390;-68
2022/08/20 02:51:45;;;;;;;6.03;2.05;;;14.40;99.90;;;;;;5037100;28;20493;-68
2022/08/20 02:54:13;;;;;;;9.27;3.13;;;14.40;99.90;;;;;;5014862;28;20132;-69
2022/08/20 02:56:40;;;;;;;7.57;2.72;;;14.40;99.90;;;;;;5028999;28;20515;-68
2022/08/20 02:59:07;;;;;;;8.95;2.55;;;14.40;99.90;;;;;;4999111;28;20053;-68
2022/08/20 03:01:36;;;;;;;9.48;2.15;;;14.40;99.90;;;;;;5027218;28;20050;-68
2022/08/20 03:04:03;;;;;;;4.93;2.05;;;14.40;99.90;;;;;;5027546;28;20045;-68
2022/08/20 03:06:31;;;;;;;9.25;3.67;;;14.40;99.90;;;;;;5009676;28;20072;-68
2022/08/20 03:08:58;;;;;;;8.23;2.60;;;14.30;99.90;;;;;;5011252;28;20050;-68
2022/08/20 03:11:25;;;;;;;5.30;2.17;;;14.30;99.90;;;;;;5029774;28;20045;-67
2022/08/20 03:13:51;;;;;;;8.18;2.78;;;14.20;99.90;;;;;;5012833;28;20045;-68
2022/08/20 03:16:18;;;;;;;10.00;2.97;;;14.20;99.90;;;;;;5026437;28;20037;-68
2022/08/20 03:18:46;;;;;;;6.78;2.42;;;14.20;99.90;;;;;;5028749;28;20049;-68
2022/08/20 03:21:17;;;;;;;5.60;2.22;;;14.20;99.90;;;;;;5019037;28;20053;-68
2022/08/20 03:23:44;;;;;;;8.20;3.35;;;14.10;99.90;;;;;;5006716;28;20050;-68
2022/08/20 03:26:12;;;;;;;6.38;2.40;;;14.10;99.90;;;;;;5026672;28;20061;-69
2022/08/20 03:28:39;;;;;;;6.47;2.33;;;14.10;99.90;;;;;;5019191;28;20049;-71
2022/08/20 03:31:06;;;;;;;7.50;3.17;;;14.00;99.90;;;;;;5028060;28;20046;-60
2022/08/20 03:33:33;;;;;;;8.80;2.78;;;14.00;99.90;;;;;;5029982;28;20058;-57
2022/08/20 03:36:00;;;;;;;45.25;38.55;;;14.00;99.90;;;;;;5029687;28;20050;-66
2022/08/20 03:38:27;;;;;;;11.30;5.95;;;14.00;99.90;;;;;;5023498;28;20057;-66
2022/08/20 03:40:59;;;;;;;8.88;4.15;;;13.90;99.90;;;;;;5018659;28;20050;-67
2022/08/20 03:43:26;;;;;;;9.35;3.60;;;13.90;99.90;;;;;;5026498;28;20061;-66
2022/08/20 03:45:54;;;;;;;6.32;2.28;;;13.90;99.90;;;;;;5021584;28;20480;-67
2022/08/20 03:48:21;;;;;;;5.50;2.08;;;13.90;99.90;;;;;;5026117;28;20046;-67
2022/08/20 03:50:48;;;;;;;5.35;2.45;;;13.80;99.90;;;;;;5021397;28;20057;-67
2022/08/20 03:53:15;;;;;;;6.30;2.05;;;13.80;99.90;;;;;;5022954;28;20137;-68
2022/08/20 03:55:45;;;;;;;9.25;2.80;;;13.70;99.90;;;;;;5007781;28;20417;-67
2022/08/20 03:58:20;;;;;;;5.07;2.65;;;13.70;99.90;;;;;;5041797;28;20041;-67
2022/08/20 04:00:55;;;;;;;6.85;1.63;;;13.70;99.90;;;;;;5025935;28;20085;-68
2022/08/20 04:03:23;;;;;;;7.35;3.00;;;13.60;99.90;;;;;;5008965;28;20129;-67
2022/08/20 04:05:50;;;;;;;6.80;1.98;;;13.60;99.90;;;;;;5029347;28;20069;-67
2022/08/20 04:08:22;;;;;;;6.65;2.33;;;13.50;99.90;;;;;;5026508;28;20053;-67
2022/08/20 04:10:49;;;;;;;6.53;1.80;;;13.50;99.90;;;;;;5023749;28;20042;-67
2022/08/20 04:13:19;;;;;;;5.53;2.25;;;13.50;99.90;;;;;;5029432;28;20049;-67
2022/08/20 04:15:49;;;;;;;7.53;2.50;;;13.50;99.90;;;;;;5027832;28;20448;-66
2022/08/20 04:18:22;;;;;;;7.22;2.55;;;13.50;99.90;;;;;;5020095;28;20046;-66
2022/08/20 04:20:49;;;;;;;6.32;2.13;;;13.40;99.90;;;;;;5027933;28;20053;-67
2022/08/20 04:23:16;;;;;;;8.57;2.28;;;13.40;99.90;;;;;;5027663;28;20501;-67
2022/08/20 04:25:44;;;;;;;8.27;2.47;;;13.40;99.90;;;;;;5027883;28;20057;-66
2022/08/20 04:28:27;;;;;;;5.97;2.08;;;13.40;99.90;;;;;;5020719;28;20060;-67
2022/08/20 04:30:56;;;;;;;5.40;1.98;;;13.40;99.90;;;;;;5027957;28;20053;-65
2022/08/20 04:33:24;;;;;;;6.88;2.25;;;13.30;99.90;;;;;;5012408;28;20052;-65
2022/08/20 04:36:01;;;;;;;6.10;2.38;;;13.30;99.90;;;;;;5028989;28;20532;-65
2022/08/20 04:38:28;;;;;;;6.85;2.72;;;13.30;99.90;;;;;;5027599;28;20056;-65
2022/08/20 04:41:15;;;;;;;7.25;2.60;;;13.30;99.90;;;;;;5026691;28;20052;-66
2022/08/20 04:43:49;;;;;;;6.22;2.05;;;13.20;99.90;;;;;;5028083;28;20045;-65
2022/08/20 04:46:15;;;;;;;8.38;2.78;;;13.20;99.90;;;;;;5027103;28;20045;-66
2022/08/20 04:48:42;;;;;;;8.70;2.22;;;13.20;99.90;;;;;;5028583;28;20053;-66
2022/08/20 04:51:15;;;;;;;6.88;2.30;;;13.20;99.90;;;;;;5017457;28;20042;-65
2022/08/20 04:53:44;;;;;;;8.48;2.30;;;13.10;99.90;;;;;;5029426;28;20068;-65
2022/08/20 04:56:24;;;;;;;9.50;2.50;;;13.10;99.90;;;;;;5020263;28;20068;-65
2022/08/20 04:58:52;;;;;;;4.80;2.03;;;13.10;99.90;;;;;;5025776;28;20099;-66
2022/08/20 05:01:19;;;;;;;6.07;2.20;;;13.10;99.90;;;;;;5025696;28;20050;-66
2022/08/20 05:03:46;;;;;;;4.75;2.53;;;13.20;99.90;;;;;;5029937;28;20076;-65
2022/08/20 05:06:14;;;;;;;5.20;2.25;;;13.20;99.90;;;;;;5030594;28;20060;-66
2022/08/20 05:08:42;;;;;;;13.30;3.83;;;13.10;99.90;;;;;;5030978;28;20268;-65
2022/08/20 05:11:09;;;;;;;6.72;2.20;;;13.20;99.90;;;;;;5027796;28;20046;-65
2022/08/20 05:13:56;;;;;;;9.60;2.47;;;13.20;99.90;;;;;;5014152;28;20438;-65
2022/08/20 05:16:23;;;;;;;12.73;3.97;;;13.20;99.90;;;;;;5015101;28;20492;-65
2022/08/20 05:18:50;;;;;;;6.72;2.78;;;13.30;99.90;;;;;;5013840;28;20049;-67
2022/08/20 05:21:19;;;;;;;8.23;3.08;;;13.30;99.90;;;;;;5007565;28;20500;-65
2022/08/20 05:23:47;;;;;;;7.53;2.47;;;13.30;99.90;;;;;;5026306;28;20485;-65
2022/08/20 05:26:15;;;;;;;9.70;3.17;;;13.40;99.90;;;;;;5027865;28;20481;-65
2022/08/20 05:28:42;;;;;;;7.22;2.35;;;13.40;99.90;;;;;;4997924;28;20064;-65
2022/08/20 05:31:25;;;;;;;6.40;2.35;;;13.40;99.90;;;;;;5022933;28;20206;-66
2022/08/20 05:34:00;;;;;;;7.35;2.67;;;13.40;99.90;;;;;;5032222;28;20056;-65
2022/08/20 05:36:27;;;;;;;9.05;3.25;;;13.50;99.90;;;;;;5028699;28;20052;-65
2022/08/20 05:38:54;;;;;;;9.13;2.60;;;13.50;99.90;;;;;;5033115;28;20071;-66
2022/08/20 05:41:21;;;;;;;10.02;2.33;;;13.50;99.90;;;;;;5029308;28;20045;-65
2022/08/20 05:44:01;;;;;;;6.72;2.35;;;13.60;99.90;;;;;;5030635;28;20050;-66
2022/08/20 05:46:29;;;;;;;8.38;3.15;;;13.70;99.90;;;;;;5027438;28;20050;-65
2022/08/20 05:48:58;;;;;;;7.32;2.45;;;13.70;99.90;;;;;;5028592;28;20061;-65
2022/08/20 05:51:27;;;;;;;4.78;2.15;;;13.80;99.90;;;;;;5023875;28;20482;-66
2022/08/20 05:53:55;;;;;;;6.95;2.55;;;13.80;99.90;;;;;;5031748;28;20055;-66
2022/08/20 05:56:25;;;;;;;7.65;2.17;;;13.90;99.90;;;;;;5031680;28;20045;-66
2022/08/20 05:58:52;;;;;;;9.73;2.30;;;14.00;99.90;;;;;;5013822;28;20564;-66
2022/08/20 06:01:19;;;;;;;10.32;3.65;;;14.00;99.90;;;;;;5011953;28;20082;-66
2022/08/20 06:06:33;;;;;;;9.93;2.78;;;14.20;99.90;;;;;;5032446;28;20057;-66
2022/08/20 06:09:15;;;;;;;6.13;2.35;;;14.30;99.90;;;;;;5030336;28;20045;-66
2022/08/20 06:11:58;;;;;;;8.90;2.50;;;14.40;99.90;;;;;;5029597;28;20386;-65
2022/08/20 06:14:25;;;;;;;10.13;2.95;;;14.50;99.90;;;;;;5016757;28;20147;-65
2022/08/20 06:16:52;;;;;;;10.45;3.13;;;14.60;99.90;;;;;;5030688;28;20045;-65
2022/08/20 06:19:23;;;;;;;5.53;2.30;;;14.70;99.90;;;;;;5025934;28;20585;-66
2022/08/20 06:21:52;;;;;;;8.68;2.65;;;14.80;99.90;;;;;;5023726;28;20588;-65
2022/08/20 06:24:20;;;;;;;6.43;2.53;;;14.90;99.90;;;;;;5029585;28;20072;-65
2022/08/20 06:26:47;;;;;;;8.10;2.20;;;15.00;99.90;;;;;;5031853;28;20481;-65
2022/08/20 06:29:14;;;;;;;8.13;3.00;;;15.10;99.90;;;;;;5027920;28;20050;-67
2022/08/20 06:31:41;;;;;;;10.55;2.78;;;15.20;99.90;;;;;;5011550;28;20053;-65
2022/08/20 06:34:08;;;;;;;8.27;3.15;;;15.20;99.90;;;;;;5029719;28;20065;-65
2022/08/20 06:36:35;;;;;;;8.68;2.95;;;15.40;99.90;;;;;;5028140;28;20045;-65
2022/08/20 06:39:02;;;;;;;9.32;3.20;;;15.40;99.90;;;;;;5031747;28;20048;-66
2022/08/20 06:41:29;;;;;;;11.52;3.05;;;15.60;99.90;;;;;;5026864;28;20072;-66
2022/08/20 06:44:02;;;;;;;11.80;2.60;;;15.70;99.90;;;;;;5029190;28;20045;-65
2022/08/20 06:46:29;;;;;;;7.93;2.45;;;15.80;99.90;;;;;;5030442;28;20274;-65
2022/08/20 06:48:56;;;;;;;8.05;2.20;;;15.90;99.90;;;;;;5026335;28;20071;-65
2022/08/20 06:51:22;;;;;;;9.68;2.50;;;16.00;99.90;;;;;;5021627;28;20060;-66
2022/08/20 06:53:49;;;;;;;9.95;2.60;;;16.10;99.90;;;;;;5020471;28;20058;-66
2022/08/20 06:56:16;;;;;;;11.88;2.25;;;16.20;99.90;;;;;;5026164;28;20050;-65
2022/08/20 06:58:43;;;;;;;13.85;2.97;;;16.40;99.90;;;;;;5016584;28;20069;-65
2022/08/20 07:01:10;;;;;;;14.13;2.90;;;16.40;99.90;;;;;;5029094;28;20461;-68
2022/08/20 07:03:39;;;;;;;15.63;3.60;;;16.50;99.90;;;;;;5030284;28;20500;-70
2022/08/20 07:06:23;;;;;;;8.35;2.40;;;16.60;99.90;;;;;;5018068;28;20050;-68
2022/08/20 07:08:50;;;;;;;7.07;2.43;;;16.70;99.90;;;;;;5011669;28;20049;-67
2022/08/20 07:11:17;;;;;;;11.30;4.68;;;16.90;99.90;;;;;;5010920;28;20291;-68
2022/08/20 07:13:44;;;;;;;9.77;2.55;;;17.00;99.90;;;;;;5011225;28;20041;-68
2022/08/20 07:16:11;;;;;;;6.80;2.92;;;17.00;99.90;;;;;;5012871;28;20054;-68
2022/08/20 07:18:37;;;;;;;9.27;2.33;;;17.10;99.90;;;;;;4995558;28;20401;-69
2022/08/20 07:21:05;;;;;;;10.57;3.35;;;17.20;99.90;;;;;;5011668;28;20046;-67
2022/08/20 07:23:32;;;;;;;8.10;2.60;;;17.20;99.90;;;;;;5017863;28;20054;-68
2022/08/20 07:25:59;;;;;;;15.07;3.28;;;17.30;99.90;;;;;;5028862;28;20057;-68
2022/08/20 07:28:30;;;;;;;12.38;3.50;;;17.40;99.90;;;;;;5005123;28;20489;-68
2022/08/20 07:33:46;;;;;;;11.40;5.93;;;17.60;99.90;;;;;;5016960;28;20489;-70
2022/08/20 07:36:18;;;;;;;52.70;41.72;;;17.70;99.90;;;;;;5021564;28;20056;-73
2022/08/20 07:38:49;;;;;;;69.65;55.42;;;17.80;99.90;;;;;;5032144;28;20051;-67
2022/08/20 07:41:16;;;;;;;28.83;25.75;;;17.90;99.90;;;;;;5027767;28;20049;-68
2022/08/20 07:43:44;;;;;;;11.55;5.10;;;18.00;99.90;;;;;;5026026;28;20054;-68
2022/08/20 07:46:12;;;;;;;12.05;3.30;;;18.10;99.90;;;;;;5031032;28;20053;-67
2022/08/20 07:48:40;;;;;;;8.15;2.95;;;18.10;99.90;;;;;;5022588;28;20075;-67
2022/08/20 07:51:08;;;;;;;8.90;2.55;;;18.10;99.90;;;;;;5003756;28;20550;-68
2022/08/20 07:53:35;;;;;;;10.20;2.83;;;18.20;99.90;;;;;;5027074;28;20059;-68
2022/08/20 07:56:04;;;;;;;6.90;2.70;;;18.20;99.90;;;;;;5026740;28;20056;-68
2022/08/20 07:58:31;;;;;;;14.43;3.45;;;18.20;99.90;;;;;;5001431;28;20080;-69
2022/08/20 08:00:59;;;;;;;11.20;2.65;;;18.20;99.90;;;;;;5020648;28;20056;-69
2022/08/20 08:03:28;;;;;;;13.38;6.50;;;18.20;99.90;;;;;;5011985;28;20053;-64
2022/08/20 08:06:15;;;;;;;10.30;2.83;;;18.30;99.90;;;;;;5010981;28;20050;-68
2022/08/20 08:09:01;;;;;;;6.85;2.20;;;18.40;99.90;;;;;;5011248;28;20450;-68
2022/08/20 08:11:28;;;;;;;8.80;2.47;;;18.50;99.90;;;;;;5010515;28;20503;-68
2022/08/20 08:13:55;;;;;;;9.43;2.65;;;18.50;99.90;;;;;;5030165;28;20405;-68
2022/08/20 08:16:22;;;;;;;8.20;2.80;;;18.60;99.90;;;;;;5025295;28;20046;-68
2022/08/20 08:18:50;;;;;;;8.63;2.42;;;18.60;99.90;;;;;;5027980;28;20123;-68
2022/08/20 08:21:17;;;;;;;13.73;3.45;;;18.60;99.90;;;;;;5012162;28;20049;-68
2022/08/20 08:23:44;;;;;;;6.95;2.58;;;18.60;99.90;;;;;;5028304;28;20050;-68
2022/08/20 08:26:13;;;;;;;7.85;2.47;;;18.60;99.90;;;;;;5027050;28;20141;-68
2022/08/20 08:28:45;;;;;;;6.65;1.70;;;18.60;99.90;;;;;;5027318;28;20046;-68
2022/08/20 08:31:13;;;;;;;7.43;2.72;;;18.70;99.90;;;;;;5035131;28;20099;-68
2022/08/20 08:33:40;;;;;;;8.52;3.17;;;18.70;99.90;;;;;;5034469;28;20049;-70
2022/08/20 08:36:09;;;;;;;7.15;2.08;;;18.80;99.90;;;;;;5033273;28;20469;-70
2022/08/20 08:38:37;;;;;;;5.80;1.80;;;18.80;99.90;;;;;;5031845;28;20061;-70
2022/08/20 08:41:12;;;;;;;8.02;2.13;;;18.80;99.90;;;;;;5010164;28;20068;-70
2022/08/20 08:43:40;;;;;;;7.35;2.17;;;18.90;99.90;;;;;;5031747;28;20099;-70
2022/08/20 08:46:09;;;;;;;3.65;1.77;;;18.90;99.90;;;;;;5031416;28;20481;-70
2022/08/20 08:48:40;;;;;;;5.93;1.92;;;19.00;99.90;;;;;;5029144;28;20049;-70
2022/08/20 08:51:11;;;;;;;6.28;1.88;;;19.00;99.90;;;;;;5008036;28;20049;-70
2022/08/20 08:53:44;;;;;;;6.38;2.28;;;19.00;99.90;;;;;;5035778;28;20057;-69
2022/08/20 08:56:13;;;;;;;5.50;1.73;;;19.10;99.90;;;;;;5028884;28;20038;-67
2022/08/20 08:58:40;;;;;;;8.93;2.28;;;19.10;99.90;;;;;;5018761;28;20043;-70
2022/08/20 09:01:13;;;;;;;6.88;2.00;;;19.10;99.90;;;;;;5027444;28;20049;-70
2022/08/20 09:04:00;;;;;;;9.32;5.88;;;19.20;99.90;;;;;;5032186;28;20045;-67
2022/08/20 09:06:27;;;;;;;7.85;3.92;;;19.40;99.90;;;;;;5028870;28;20065;-68
2022/08/20 09:09:04;;;;;;;4.03;2.42;;;19.70;99.90;;;;;;5000267;28;20054;-68
2022/08/20 09:11:43;;;;;;;6.20;2.50;;;19.90;99.90;;;;;;5017430;28;20054;-67
2022/08/20 09:14:10;;;;;;;3.88;1.70;;;19.90;99.90;;;;;;5024684;28;20120;-69
2022/08/20 09:16:37;;;;;;;7.53;2.40;;;20.10;99.90;;;;;;5029142;28;20045;-64
2022/08/20 09:19:20;;;;;;;8.20;2.22;;;20.20;99.90;;;;;;5019323;28;20097;-65
2022/08/20 09:21:47;;;;;;;3.70;1.50;;;20.30;99.90;;;;;;5016522;28;20050;-65
2022/08/20 09:24:14;;;;;;;5.15;1.38;;;20.40;99.90;;;;;;5027975;28;20057;-64
2022/08/20 09:26:41;;;;;;;3.80;1.85;;;20.50;99.90;;;;;;5016966;28;20049;-64
2022/08/20 09:29:08;;;;;;;5.85;3.25;;;20.50;99.90;;;;;;5010642;28;20041;-64
2022/08/20 09:31:35;;;;;;;4.93;2.90;;;20.60;99.90;;;;;;5033125;28;20057;-65
2022/08/20 09:34:04;;;;;;;4.93;1.80;;;20.70;99.90;;;;;;5033367;28;20055;-65
2022/08/20 09:36:32;;;;;;;4.30;1.52;;;20.70;99.90;;;;;;5034252;28;20065;-65
2022/08/20 09:38:59;;;;;;;4.78;1.77;;;20.80;99.90;;;;;;5029005;28;20060;-65
2022/08/20 09:41:29;;;;;;;4.95;1.40;;;21.00;99.90;;;;;;5016724;28;20053;-65
2022/08/20 09:43:59;;;;;;;4.32;1.40;;;21.20;99.90;;;;;;5029450;28;20127;-65
2022/08/20 09:46:26;;;;;;;6.68;1.55;;;21.30;99.90;;;;;;5033306;28;20052;-65
2022/08/20 09:48:54;;;;;;;3.83;1.63;;;21.40;99.90;;;;;;5032779;28;20049;-65
2022/08/20 09:51:21;;;;;;;4.43;1.60;;;21.40;99.90;;;;;;5018812;28;20125;-65
2022/08/20 09:53:48;;;;;;;4.57;1.60;;;21.60;99.90;;;;;;5017570;28;20397;-68
2022/08/20 09:56:15;;;;;;;4.80;1.83;;;21.80;99.90;;;;;;4993061;28;20050;-66
2022/08/20 09:58:49;;;;;;;4.28;1.95;;;21.90;99.90;;;;;;5008346;28;20046;-65
2022/08/20 10:01:16;;;;;;;3.70;1.27;;;22.00;99.90;;;;;;5013100;28;20057;-66
2022/08/20 10:03:46;;;;;;;54.30;48.58;;;22.00;99.90;;;;;;4996849;28;20050;-64
2022/08/20 10:06:15;;;;;;;5.75;4.50;;;22.00;99.90;;;;;;5028530;28;20061;-64
2022/08/20 10:08:42;;;;;;;5.53;2.17;;;22.20;99.90;;;;;;5012532;28;20133;-67
2022/08/20 10:11:10;;;;;;;3.67;1.60;;;22.20;99.90;;;;;;5012526;28;20054;-64
2022/08/20 10:13:36;;;;;;;9.85;1.83;;;22.30;99.90;;;;;;5029169;28;20056;-64
2022/08/20 10:16:04;;;;;;;5.07;2.13;;;22.40;99.90;;;;;;5029049;28;20057;-64
2022/08/20 10:18:30;;;;;;;5.18;1.88;;;22.30;99.90;;;;;;5013739;28;20050;-64
2022/08/20 10:20:57;;;;;;;2.70;1.27;;;22.40;99.90;;;;;;4996261;28;20052;-64
2022/08/20 10:23:24;;;;;;;3.58;1.80;;;22.50;99.90;;;;;;5013304;28;20145;-66
2022/08/20 10:25:51;;;;;;;6.00;2.33;;;22.70;99.90;;;;;;5013505;28;20057;-64
2022/08/20 10:28:18;;;;;;;4.38;1.70;;;22.80;99.90;;;;;;5029027;28;20045;-64
2022/08/20 10:30:45;;;;;;;7.60;2.40;;;22.90;99.90;;;;;;5013785;28;20054;-64
2022/08/20 10:33:12;;;;;;;5.03;2.42;;;23.00;99.90;;;;;;5028784;28;20149;-64
2022/08/20 10:35:39;;;;;;;2.90;1.38;;;23.10;99.90;;;;;;5028759;28;20046;-63
2022/08/20 10:38:06;;;;;;;5.95;1.80;;;23.30;99.90;;;;;;5027964;28;20057;-64
2022/08/20 10:40:33;;;;;;;4.35;1.55;;;23.50;99.90;;;;;;5013313;28;20052;-64
2022/08/20 10:43:00;;;;;;;6.78;1.80;;;23.50;99.90;;;;;;5045738;28;20050;-64
2022/08/20 10:45:27;;;;;;;6.07;1.77;;;23.40;99.90;;;;;;5031776;28;20065;-68
2022/08/20 10:47:54;;;;;;;5.63;2.75;;;23.30;99.90;;;;;;5032819;28;20390;-64
2022/08/20 10:50:21;;;;;;;6.15;2.25;;;23.20;99.90;;;;;;5025624;28;20060;-66
2022/08/20 10:52:48;;;;;;;5.40;2.10;;;23.10;99.90;;;;;;5028157;28;20152;-67
2022/08/20 10:55:16;;;;;;;5.80;1.95;;;23.20;99.90;;;;;;5012210;28;20049;-66
2022/08/20 10:57:43;;;;;;;4.05;1.55;;;23.20;99.90;;;;;;5013138;28;20110;-66
2022/08/20 11:00:12;;;;;;;7.68;2.05;;;23.20;99.90;;;;;;5011906;28;20053;-66
2022/08/20 11:02:39;;;;;;;4.35;2.00;;;23.20;99.90;;;;;;5044945;28;20400;-66
2022/08/20 11:05:06;;;;;;;3.38;1.50;;;23.20;99.90;;;;;;5011912;28;20052;-66
2022/08/20 11:07:35;;;;;;;6.43;2.05;;;23.20;99.90;;;;;;5013720;28;20052;-66
2022/08/20 11:10:26;;;;;;;3.50;1.75;;;23.30;99.90;;;;;;5031968;28;20045;-64
2022/08/20 11:12:53;;;;;;;5.85;1.85;;;23.30;99.90;;;;;;5031012;28;20056;-68
2022/08/20 11:15:20;;;;;;;7.45;2.33;;;23.40;99.90;;;;;;5031385;28;20057;-65
2022/08/20 11:17:47;;;;;;;6.00;2.28;;;23.50;99.90;;;;;;5020442;28;20505;-68
2022/08/20 11:20:16;;;;;;;5.32;2.33;;;23.60;99.90;;;;;;5012502;28;20046;-67
2022/08/20 11:22:43;;;;;;;5.18;1.65;;;23.80;99.90;;;;;;5012669;28;20052;-69
2022/08/20 11:25:10;;;;;;;4.57;2.60;;;23.90;99.90;;;;;;5027760;28;20041;-66
2022/08/20 11:27:40;;;;;;;4.03;2.30;;;24.10;99.80;;;;;;5027560;28;20405;-68
2022/08/20 11:30:09;;;;;;;7.97;6.43;;;24.10;99.30;;;;;;5011547;28;20538;-74
2022/08/20 11:32:36;;;;;;;6.53;4.85;;;24.10;99.00;;;;;;5011205;28;20100;-67
2022/08/20 11:35:03;;;;;;;8.18;3.80;;;24.20;98.60;;;;;;5011347;28;20085;-69
2022/08/20 11:37:51;;;;;;;4.18;2.95;;;24.20;97.70;;;;;;5021892;28;20049;-70
2022/08/20 11:40:18;;;;;;;5.57;2.30;;;24.20;98.00;;;;;;5010989;28;20085;-74
2022/08/20 11:42:48;;;;;;;3.70;1.90;;;24.30;97.00;;;;;;5027776;28;20049;-67
2022/08/20 11:45:35;;;;;;;4.38;2.63;;;24.30;96.70;;;;;;5031438;28;20054;-71
2022/08/20 11:48:03;;;;;;;12.32;9.40;;;24.50;96.10;;;;;;5032025;28;20506;-68
2022/08/20 11:50:30;;;;;;;7.60;3.50;;;24.50;95.50;;;;;;5006832;28;20461;-65
2022/08/20 11:52:58;;;;;;;4.60;2.28;;;24.40;95.40;;;;;;5027299;28;20049;-67
2022/08/20 11:55:27;;;;;;;5.72;1.70;;;24.50;95.00;;;;;;5042871;28;20497;-69
2022/08/20 11:57:56;;;;;;;4.63;2.00;;;24.50;93.80;;;;;;5010805;28;20060;-67
2022/08/20 12:00:27;;;;;;;5.15;1.92;;;24.60;93.90;;;;;;5014975;28;20081;-70
2022/08/20 12:03:03;;;;;;;4.43;1.83;;;24.60;94.00;;;;;;5025295;28;20133;-70
2022/08/20 12:05:34;;;;;;;4.18;1.63;;;24.60;93.00;;;;;;5010915;28;20070;-71
2022/08/20 12:08:01;;;;;;;4.53;1.70;;;24.50;93.40;;;;;;5002819;28;20061;-68
2022/08/20 12:10:28;;;;;;;12.88;11.20;;;24.50;93.00;;;;;;5016361;28;20193;-64
2022/08/20 12:12:55;;;;;;;29.08;25.90;;;24.40;93.50;;;;;;5026218;28;20049;-70
2022/08/20 12:15:24;;;;;;;46.17;41.60;;;24.20;93.40;;;;;;5033208;28;20503;-65
2022/08/20 12:17:51;;;;;;;4.72;3.72;;;24.10;93.10;;;;;;5031613;28;20076;-68
2022/08/20 12:20:18;;;;;;;9.27;4.50;;;24.10;93.60;;;;;;5031328;28;20386;-67
2022/08/20 12:22:45;;;;;;;6.50;2.20;;;24.00;93.10;;;;;;5033815;28;20416;-67
2022/08/20 12:25:12;;;;;;;6.55;2.50;;;24.20;93.70;;;;;;5014675;28;20053;-70
2022/08/20 12:27:39;;;;;;;3.13;1.60;;;24.40;93.30;;;;;;5049674;28;20141;-69
2022/08/20 12:30:12;;;;;;;5.03;1.52;;;24.70;92.20;;;;;;5022566;28;20049;-71
2022/08/20 12:32:39;;;;;;;5.68;1.60;;;24.90;91.90;;;;;;5017885;28;20054;-72
2022/08/20 12:35:06;;;;;;;4.72;1.95;;;25.10;91.80;;;;;;4998251;28;20058;-66
2022/08/20 12:37:33;;;;;;;4.65;2.20;;;25.30;91.30;;;;;;5013947;28;20073;-67
2022/08/20 12:40:03;;;;;;;6.38;1.52;;;25.40;90.90;;;;;;5015642;28;20389;-66
2022/08/20 12:42:30;;;;;;;5.63;2.50;;;25.50;90.20;;;;;;5014398;28;20120;-67
2022/08/20 12:44:57;;;;;;;4.10;2.00;;;25.60;90.80;;;;;;5024274;28;20050;-70
2022/08/20 12:47:26;;;;;;;2.75;1.30;;;25.70;91.80;;;;;;5018114;28;20049;-67
2022/08/20 12:49:55;;;;;;;6.57;4.55;;;25.50;87.70;;;;;;5025925;28;20400;-66
2022/08/20 12:52:22;;;;;;;;;;;25.50;90.50;;;;;;4997001;28;20046;-74
2022/08/20 12:54:49;;;;;;;7.68;6.38;;;25.50;88.60;;;;;;5030465;28;19921;-67
2022/08/20 12:57:24;;;;;;;3.75;1.73;;;25.40;90.00;;;;;;5031440;28;20061;-67
2022/08/20 12:59:51;;;;;;;4.53;1.58;;;25.40;86.90;;;;;;5032683;28;20484;-70
2022/08/20 13:02:18;;;;;;;2.95;1.50;;;25.30;87.90;;;;;;5034169;28;20042;-77